sensor_id;sensor_type;location;lat;lon;timestamp;P1;durP1;ratioP1;P2;durP2;ratioP2
74293;SDS011;64044;59.904;10.738;2023-03-03T00:01:09;9.05;;;3.58;;
74293;SDS011;64044;59.904;10.738;2023-03-03T00:03:34;7.70;;;3.45;;
74293;SDS011;64044;59.904;10.738;2023-03-03T00:06:01;10.07;;;3.90;;
74293;SDS011;64044;59.904;10.738;2023-03-03T00:08:28;10.63;;;4.07;;
74293;SDS011;64044;59.904;10.738;2023-03-03T00:10:56;10.93;;;4.30;;
74293;SDS011;64044;59.904;10.738;2023-03-03T00:13:25;10.70;;;3.78;;
74293;SDS011;64044;59.904;10.738;2023-03-03T00:15:52;11.45;;;4.72;;
74293;SDS011;64044;59.904;10.738;2023-03-03T00:18:36;9.70;;;4.22;;
74293;SDS011;64044;59.904;10.738;2023-03-03T00:21:14;12.10;;;4.40;;
74293;SDS011;64044;59.904;10.738;2023-03-03T00:26:55;8.00;;;3.95;;
74293;SDS011;64044;59.904;10.738;2023-03-03T00:29:28;8.00;;;4.40;;
74293;SDS011;64044;59.904;10.738;2023-03-03T00:34:48;6.75;;;3.25;;
74293;SDS011;64044;59.904;10.738;2023-03-03T00:39:46;5.43;;;2.53;;
74293;SDS011;64044;59.904;10.738;2023-03-03T00:42:13;5.47;;;3.00;;
74293;SDS011;64044;59.904;10.738;2023-03-03T00:44:41;8.48;;;3.25;;
74293;SDS011;64044;59.904;10.738;2023-03-03T00:52:38;5.15;;;2.70;;
74293;SDS011;64044;59.904;10.738;2023-03-03T00:55:09;9.23;;;3.05;;
74293;SDS011;64044;59.904;10.738;2023-03-03T00:57:36;10.88;;;3.65;;
74293;SDS011;64044;59.904;10.738;2023-03-03T01:00:02;6.50;;;3.70;;
74293;SDS011;64044;59.904;10.738;2023-03-03T01:02:28;8.82;;;3.17;;
74293;SDS011;64044;59.904;10.738;2023-03-03T01:04:55;9.35;;;3.75;;
74293;SDS011;64044;59.904;10.738;2023-03-03T01:07:21;11.15;;;3.58;;
74293;SDS011;64044;59.904;10.738;2023-03-03T01:09:47;6.60;;;3.55;;
74293;SDS011;64044;59.904;10.738;2023-03-03T01:12:13;8.05;;;3.75;;
74293;SDS011;64044;59.904;10.738;2023-03-03T01:14:40;8.10;;;3.55;;
74293;SDS011;64044;59.904;10.738;2023-03-03T01:17:06;7.45;;;4.07;;
74293;SDS011;64044;59.904;10.738;2023-03-03T01:19:32;6.43;;;3.70;;
74293;SDS011;64044;59.904;10.738;2023-03-03T01:21:59;9.68;;;3.70;;
74293;SDS011;64044;59.904;10.738;2023-03-03T01:24:24;8.15;;;3.35;;
74293;SDS011;64044;59.904;10.738;2023-03-03T01:26:50;6.72;;;3.42;;
74293;SDS011;64044;59.904;10.738;2023-03-03T01:29:16;8.57;;;3.63;;
74293;SDS011;64044;59.904;10.738;2023-03-03T01:31:41;8.55;;;3.30;;
74293;SDS011;64044;59.904;10.738;2023-03-03T01:34:07;10.63;;;3.35;;
74293;SDS011;64044;59.904;10.738;2023-03-03T01:36:33;10.90;;;3.17;;
74293;SDS011;64044;59.904;10.738;2023-03-03T01:38:59;9.57;;;3.78;;
74293;SDS011;64044;59.904;10.738;2023-03-03T01:41:28;10.07;;;4.25;;
74293;SDS011;64044;59.904;10.738;2023-03-03T01:43:57;8.20;;;3.55;;
74293;SDS011;64044;59.904;10.738;2023-03-03T01:48:50;7.10;;;3.85;;
74293;SDS011;64044;59.904;10.738;2023-03-03T01:51:26;9.43;;;3.97;;
74293;SDS011;64044;59.904;10.738;2023-03-03T01:54:12;7.28;;;3.05;;
74293;SDS011;64044;59.904;10.738;2023-03-03T01:56:45;10.70;;;5.28;;
74293;SDS011;64044;59.904;10.738;2023-03-03T01:59:22;10.57;;;3.75;;
74293;SDS011;64044;59.904;10.738;2023-03-03T02:01:52;8.00;;;3.83;;
74293;SDS011;64044;59.904;10.738;2023-03-03T02:04:18;14.88;;;4.07;;
74293;SDS011;64044;59.904;10.738;2023-03-03T02:06:49;8.20;;;4.10;;
74293;SDS011;64044;59.904;10.738;2023-03-03T02:11:56;10.00;;;4.55;;
74293;SDS011;64044;59.904;10.738;2023-03-03T02:14:25;9.83;;;3.87;;
74293;SDS011;64044;59.904;10.738;2023-03-03T02:16:52;10.38;;;4.50;;
74293;SDS011;64044;59.904;10.738;2023-03-03T02:22:14;8.23;;;4.22;;
74293;SDS011;64044;59.904;10.738;2023-03-03T02:24:48;11.23;;;4.18;;
74293;SDS011;64044;59.904;10.738;2023-03-03T02:27:17;15.35;;;4.55;;
74293;SDS011;64044;59.904;10.738;2023-03-03T02:29:43;9.20;;;4.30;;
74293;SDS011;64044;59.904;10.738;2023-03-03T02:32:09;7.88;;;3.88;;
74293;SDS011;64044;59.904;10.738;2023-03-03T02:34:48;9.77;;;4.25;;
74293;SDS011;64044;59.904;10.738;2023-03-03T02:37:15;7.30;;;3.45;;
74293;SDS011;64044;59.904;10.738;2023-03-03T02:39:42;12.52;;;3.92;;
74293;SDS011;64044;59.904;10.738;2023-03-03T02:42:21;10.00;;;3.85;;
74293;SDS011;64044;59.904;10.738;2023-03-03T02:44:51;9.32;;;4.15;;
74293;SDS011;64044;59.904;10.738;2023-03-03T02:47:17;9.02;;;3.75;;
74293;SDS011;64044;59.904;10.738;2023-03-03T02:49:42;9.13;;;3.90;;
74293;SDS011;64044;59.904;10.738;2023-03-03T02:52:09;7.32;;;3.35;;
74293;SDS011;64044;59.904;10.738;2023-03-03T02:54:36;9.68;;;3.80;;
74293;SDS011;64044;59.904;10.738;2023-03-03T02:57:02;8.55;;;3.70;;
74293;SDS011;64044;59.904;10.738;2023-03-03T02:59:29;11.80;;;3.45;;
74293;SDS011;64044;59.904;10.738;2023-03-03T03:01:55;11.98;;;4.13;;
74293;SDS011;64044;59.904;10.738;2023-03-03T03:04:21;8.30;;;3.75;;
74293;SDS011;64044;59.904;10.738;2023-03-03T03:06:49;7.05;;;3.88;;
74293;SDS011;64044;59.904;10.738;2023-03-03T03:09:16;10.00;;;3.78;;
74293;SDS011;64044;59.904;10.738;2023-03-03T03:11:42;11.52;;;3.78;;
74293;SDS011;64044;59.904;10.738;2023-03-03T03:14:10;9.48;;;3.47;;
74293;SDS011;64044;59.904;10.738;2023-03-03T03:16:36;9.05;;;3.50;;
74293;SDS011;64044;59.904;10.738;2023-03-03T03:19:03;9.63;;;3.92;;
74293;SDS011;64044;59.904;10.738;2023-03-03T03:21:29;10.52;;;3.85;;
74293;SDS011;64044;59.904;10.738;2023-03-03T03:23:55;9.90;;;3.95;;
74293;SDS011;64044;59.904;10.738;2023-03-03T03:26:22;9.43;;;4.03;;
74293;SDS011;64044;59.904;10.738;2023-03-03T03:28:48;5.07;;;2.97;;
74293;SDS011;64044;59.904;10.738;2023-03-03T03:31:15;10.45;;;3.75;;
74293;SDS011;64044;59.904;10.738;2023-03-03T03:33:41;7.05;;;3.03;;
74293;SDS011;64044;59.904;10.738;2023-03-03T03:36:07;9.75;;;4.10;;
74293;SDS011;64044;59.904;10.738;2023-03-03T03:38:34;6.47;;;3.28;;
74293;SDS011;64044;59.904;10.738;2023-03-03T03:41:00;9.75;;;3.38;;
74293;SDS011;64044;59.904;10.738;2023-03-03T03:43:27;7.28;;;3.92;;
74293;SDS011;64044;59.904;10.738;2023-03-03T03:45:53;7.30;;;3.75;;
74293;SDS011;64044;59.904;10.738;2023-03-03T03:48:18;8.80;;;3.63;;
74293;SDS011;64044;59.904;10.738;2023-03-03T03:50:48;10.50;;;3.22;;
74293;SDS011;64044;59.904;10.738;2023-03-03T03:53:15;8.55;;;3.80;;
74293;SDS011;64044;59.904;10.738;2023-03-03T03:55:41;10.68;;;3.58;;
74293;SDS011;64044;59.904;10.738;2023-03-03T03:58:07;5.18;;;3.33;;
74293;SDS011;64044;59.904;10.738;2023-03-03T04:00:33;7.63;;;3.88;;
74293;SDS011;64044;59.904;10.738;2023-03-03T04:02:59;8.77;;;3.45;;
74293;SDS011;64044;59.904;10.738;2023-03-03T04:05:24;9.88;;;4.03;;
74293;SDS011;64044;59.904;10.738;2023-03-03T04:07:50;8.88;;;3.92;;
74293;SDS011;64044;59.904;10.738;2023-03-03T04:10:16;17.33;;;3.58;;
74293;SDS011;64044;59.904;10.738;2023-03-03T04:12:42;12.48;;;3.85;;
74293;SDS011;64044;59.904;10.738;2023-03-03T04:15:09;10.63;;;3.72;;
74293;SDS011;64044;59.904;10.738;2023-03-03T04:17:37;10.07;;;3.88;;
74293;SDS011;64044;59.904;10.738;2023-03-03T04:20:04;10.48;;;3.75;;
74293;SDS011;64044;59.904;10.738;2023-03-03T04:22:30;6.13;;;3.35;;
74293;SDS011;64044;59.904;10.738;2023-03-03T04:25:01;7.95;;;3.15;;
74293;SDS011;64044;59.904;10.738;2023-03-03T04:27:32;8.85;;;2.95;;
74293;SDS011;64044;59.904;10.738;2023-03-03T04:29:58;6.65;;;3.50;;
74293;SDS011;64044;59.904;10.738;2023-03-03T04:32:24;9.52;;;4.28;;
74293;SDS011;64044;59.904;10.738;2023-03-03T04:34:50;7.53;;;2.85;;
74293;SDS011;64044;59.904;10.738;2023-03-03T04:37:15;7.50;;;3.08;;
74293;SDS011;64044;59.904;10.738;2023-03-03T04:39:41;6.15;;;2.83;;
74293;SDS011;64044;59.904;10.738;2023-03-03T04:42:07;6.07;;;2.60;;
74293;SDS011;64044;59.904;10.738;2023-03-03T04:44:33;7.70;;;2.83;;
74293;SDS011;64044;59.904;10.738;2023-03-03T04:46:58;4.63;;;2.75;;
74293;SDS011;64044;59.904;10.738;2023-03-03T04:49:24;8.80;;;3.08;;
74293;SDS011;64044;59.904;10.738;2023-03-03T04:51:50;7.78;;;2.58;;
74293;SDS011;64044;59.904;10.738;2023-03-03T04:54:15;6.15;;;2.40;;
74293;SDS011;64044;59.904;10.738;2023-03-03T04:56:41;6.88;;;2.58;;
74293;SDS011;64044;59.904;10.738;2023-03-03T04:59:07;7.25;;;2.22;;
74293;SDS011;64044;59.904;10.738;2023-03-03T05:01:33;6.93;;;2.97;;
74293;SDS011;64044;59.904;10.738;2023-03-03T05:03:58;9.25;;;3.42;;
74293;SDS011;64044;59.904;10.738;2023-03-03T05:06:24;5.13;;;2.40;;
74293;SDS011;64044;59.904;10.738;2023-03-03T05:08:50;6.88;;;3.00;;
74293;SDS011;64044;59.904;10.738;2023-03-03T05:11:15;9.07;;;2.92;;
74293;SDS011;64044;59.904;10.738;2023-03-03T05:13:41;9.35;;;2.47;;
74293;SDS011;64044;59.904;10.738;2023-03-03T05:16:07;4.95;;;2.65;;
74293;SDS011;64044;59.904;10.738;2023-03-03T05:18:33;7.68;;;2.55;;
74293;SDS011;64044;59.904;10.738;2023-03-03T05:20:58;4.93;;;2.85;;
74293;SDS011;64044;59.904;10.738;2023-03-03T05:23:24;5.57;;;2.38;;
74293;SDS011;64044;59.904;10.738;2023-03-03T05:25:50;6.07;;;2.95;;
74293;SDS011;64044;59.904;10.738;2023-03-03T05:28:16;5.78;;;2.78;;
74293;SDS011;64044;59.904;10.738;2023-03-03T05:30:42;9.80;;;3.08;;
74293;SDS011;64044;59.904;10.738;2023-03-03T05:33:09;9.57;;;3.33;;
74293;SDS011;64044;59.904;10.738;2023-03-03T05:35:38;6.72;;;2.60;;
74293;SDS011;64044;59.904;10.738;2023-03-03T05:38:04;5.20;;;2.40;;
74293;SDS011;64044;59.904;10.738;2023-03-03T05:40:29;12.80;;;2.92;;
74293;SDS011;64044;59.904;10.738;2023-03-03T05:42:55;7.78;;;2.50;;
74293;SDS011;64044;59.904;10.738;2023-03-03T05:45:21;4.47;;;2.75;;
74293;SDS011;64044;59.904;10.738;2023-03-03T05:47:51;4.38;;;2.28;;
74293;SDS011;64044;59.904;10.738;2023-03-03T05:50:17;5.90;;;2.50;;
74293;SDS011;64044;59.904;10.738;2023-03-03T05:52:48;8.23;;;2.97;;
74293;SDS011;64044;59.904;10.738;2023-03-03T05:55:15;6.93;;;2.95;;
74293;SDS011;64044;59.904;10.738;2023-03-03T05:57:41;6.28;;;2.83;;
74293;SDS011;64044;59.904;10.738;2023-03-03T06:00:07;4.95;;;2.95;;
74293;SDS011;64044;59.904;10.738;2023-03-03T06:02:33;5.07;;;2.78;;
74293;SDS011;64044;59.904;10.738;2023-03-03T06:04:59;7.03;;;2.95;;
74293;SDS011;64044;59.904;10.738;2023-03-03T06:07:25;7.28;;;2.80;;
74293;SDS011;64044;59.904;10.738;2023-03-03T06:09:51;7.35;;;2.95;;
74293;SDS011;64044;59.904;10.738;2023-03-03T06:12:17;6.78;;;2.88;;
74293;SDS011;64044;59.904;10.738;2023-03-03T06:14:42;5.88;;;2.40;;
74293;SDS011;64044;59.904;10.738;2023-03-03T06:17:08;5.30;;;2.60;;
74293;SDS011;64044;59.904;10.738;2023-03-03T06:19:35;7.63;;;2.60;;
74293;SDS011;64044;59.904;10.738;2023-03-03T06:22:01;5.40;;;2.83;;
74293;SDS011;64044;59.904;10.738;2023-03-03T06:24:27;6.30;;;2.60;;
74293;SDS011;64044;59.904;10.738;2023-03-03T06:26:57;5.82;;;2.63;;
74293;SDS011;64044;59.904;10.738;2023-03-03T06:29:23;5.53;;;2.58;;
74293;SDS011;64044;59.904;10.738;2023-03-03T06:31:49;7.90;;;3.40;;
74293;SDS011;64044;59.904;10.738;2023-03-03T06:34:15;5.78;;;2.67;;
74293;SDS011;64044;59.904;10.738;2023-03-03T06:36:41;5.82;;;2.85;;
74293;SDS011;64044;59.904;10.738;2023-03-03T06:39:06;7.63;;;3.22;;
74293;SDS011;64044;59.904;10.738;2023-03-03T06:41:32;9.23;;;3.28;;
74293;SDS011;64044;59.904;10.738;2023-03-03T06:43:58;9.00;;;3.20;;
74293;SDS011;64044;59.904;10.738;2023-03-03T06:46:24;7.53;;;3.08;;
74293;SDS011;64044;59.904;10.738;2023-03-03T06:48:50;7.25;;;3.53;;
74293;SDS011;64044;59.904;10.738;2023-03-03T06:51:23;7.55;;;3.10;;
74293;SDS011;64044;59.904;10.738;2023-03-03T06:53:58;9.50;;;2.67;;
74293;SDS011;64044;59.904;10.738;2023-03-03T06:56:30;7.95;;;2.88;;
74293;SDS011;64044;59.904;10.738;2023-03-03T06:59:00;6.82;;;2.75;;
74293;SDS011;64044;59.904;10.738;2023-03-03T07:01:33;6.40;;;2.70;;
74293;SDS011;64044;59.904;10.738;2023-03-03T07:04:00;10.57;;;3.75;;
74293;SDS011;64044;59.904;10.738;2023-03-03T07:06:29;9.30;;;3.40;;
74293;SDS011;64044;59.904;10.738;2023-03-03T07:08:56;5.28;;;2.42;;
74293;SDS011;64044;59.904;10.738;2023-03-03T07:11:22;6.55;;;2.38;;
74293;SDS011;64044;59.904;10.738;2023-03-03T07:13:52;7.50;;;3.05;;
74293;SDS011;64044;59.904;10.738;2023-03-03T07:16:22;4.75;;;2.58;;
74293;SDS011;64044;59.904;10.738;2023-03-03T07:18:57;9.38;;;3.80;;
74293;SDS011;64044;59.904;10.738;2023-03-03T07:21:33;4.45;;;2.17;;
74293;SDS011;64044;59.904;10.738;2023-03-03T07:24:00;7.55;;;2.15;;
74293;SDS011;64044;59.904;10.738;2023-03-03T07:26:41;6.30;;;3.15;;
74293;SDS011;64044;59.904;10.738;2023-03-03T07:31:55;4.07;;;2.42;;
74293;SDS011;64044;59.904;10.738;2023-03-03T07:34:23;6.30;;;2.60;;
74293;SDS011;64044;59.904;10.738;2023-03-03T07:37:12;6.03;;;2.75;;
74293;SDS011;64044;59.904;10.738;2023-03-03T07:39:43;6.63;;;2.72;;
74293;SDS011;64044;59.904;10.738;2023-03-03T07:42:16;5.90;;;2.20;;
74293;SDS011;64044;59.904;10.738;2023-03-03T07:44:53;8.10;;;3.33;;
74293;SDS011;64044;59.904;10.738;2023-03-03T07:52:56;6.22;;;2.65;;
74293;SDS011;64044;59.904;10.738;2023-03-03T07:55:29;3.88;;;2.25;;
74293;SDS011;64044;59.904;10.738;2023-03-03T07:57:56;6.50;;;2.50;;
74293;SDS011;64044;59.904;10.738;2023-03-03T08:03:43;6.47;;;2.28;;
74293;SDS011;64044;59.904;10.738;2023-03-03T08:09:18;9.13;;;2.92;;
74293;SDS011;64044;59.904;10.738;2023-03-03T08:11:52;5.18;;;2.28;;
74293;SDS011;64044;59.904;10.738;2023-03-03T08:14:25;9.80;;;2.65;;
74293;SDS011;64044;59.904;10.738;2023-03-03T08:16:54;6.32;;;2.55;;
74293;SDS011;64044;59.904;10.738;2023-03-03T08:19:21;5.07;;;2.70;;
74293;SDS011;64044;59.904;10.738;2023-03-03T08:21:48;8.50;;;2.78;;
74293;SDS011;64044;59.904;10.738;2023-03-03T08:24:14;6.47;;;2.97;;
74293;SDS011;64044;59.904;10.738;2023-03-03T08:26:40;7.72;;;2.28;;
74293;SDS011;64044;59.904;10.738;2023-03-03T08:29:05;3.85;;;1.80;;
74293;SDS011;64044;59.904;10.738;2023-03-03T08:31:31;4.93;;;2.40;;
74293;SDS011;64044;59.904;10.738;2023-03-03T08:33:57;4.35;;;2.65;;
74293;SDS011;64044;59.904;10.738;2023-03-03T08:36:23;4.68;;;2.13;;
74293;SDS011;64044;59.904;10.738;2023-03-03T08:38:48;4.82;;;2.30;;
74293;SDS011;64044;59.904;10.738;2023-03-03T08:41:14;4.00;;;2.30;;
74293;SDS011;64044;59.904;10.738;2023-03-03T08:43:40;5.40;;;2.28;;
74293;SDS011;64044;59.904;10.738;2023-03-03T08:46:07;5.90;;;1.80;;
74293;SDS011;64044;59.904;10.738;2023-03-03T08:48:34;4.10;;;2.35;;
74293;SDS011;64044;59.904;10.738;2023-03-03T08:51:00;6.57;;;2.13;;
74293;SDS011;64044;59.904;10.738;2023-03-03T08:53:26;3.78;;;2.30;;
74293;SDS011;64044;59.904;10.738;2023-03-03T08:55:52;4.15;;;1.98;;
74293;SDS011;64044;59.904;10.738;2023-03-03T08:58:18;6.45;;;2.20;;
74293;SDS011;64044;59.904;10.738;2023-03-03T09:00:45;6.00;;;2.10;;
74293;SDS011;64044;59.904;10.738;2023-03-03T09:03:11;8.38;;;2.40;;
74293;SDS011;64044;59.904;10.738;2023-03-03T09:05:37;3.67;;;2.15;;
74293;SDS011;64044;59.904;10.738;2023-03-03T09:08:04;9.10;;;2.88;;
74293;SDS011;64044;59.904;10.738;2023-03-03T09:10:31;8.82;;;2.47;;
74293;SDS011;64044;59.904;10.738;2023-03-03T09:13:03;8.55;;;2.88;;
74293;SDS011;64044;59.904;10.738;2023-03-03T09:15:36;7.38;;;2.97;;
74293;SDS011;64044;59.904;10.738;2023-03-03T09:18:16;12.05;;;2.53;;
74293;SDS011;64044;59.904;10.738;2023-03-03T09:26:17;6.38;;;2.75;;
74293;SDS011;64044;59.904;10.738;2023-03-03T09:28:46;4.97;;;2.22;;
74293;SDS011;64044;59.904;10.738;2023-03-03T09:31:47;9.55;;;2.40;;
74293;SDS011;64044;59.904;10.738;2023-03-03T09:34:49;8.48;;;2.50;;
74293;SDS011;64044;59.904;10.738;2023-03-03T09:39:53;8.43;;;2.50;;
74293;SDS011;64044;59.904;10.738;2023-03-03T09:45:25;6.85;;;2.28;;
74293;SDS011;64044;59.904;10.738;2023-03-03T09:48:10;5.20;;;2.55;;
74293;SDS011;64044;59.904;10.738;2023-03-03T09:53:38;8.35;;;2.47;;
74293;SDS011;64044;59.904;10.738;2023-03-03T09:56:32;6.25;;;2.30;;
74293;SDS011;64044;59.904;10.738;2023-03-03T10:18:34;4.82;;;2.97;;
74293;SDS011;64044;59.904;10.738;2023-03-03T10:53:33;6.40;;;2.30;;
74293;SDS011;64044;59.904;10.738;2023-03-03T11:04:20;6.40;;;2.40;;
74293;SDS011;64044;59.904;10.738;2023-03-03T11:15:27;7.07;;;2.55;;
74293;SDS011;64044;59.904;10.738;2023-03-03T11:20:38;12.45;;;3.40;;
74293;SDS011;64044;59.904;10.738;2023-03-03T11:31:20;8.85;;;2.72;;
74293;SDS011;64044;59.904;10.738;2023-03-03T11:34:00;4.30;;;2.30;;
74293;SDS011;64044;59.904;10.738;2023-03-03T11:39:11;7.53;;;2.08;;
74293;SDS011;64044;59.904;10.738;2023-03-03T11:41:47;6.22;;;2.20;;
74293;SDS011;64044;59.904;10.738;2023-03-03T11:47:05;2.55;;;1.60;;
74293;SDS011;64044;59.904;10.738;2023-03-03T11:50:14;8.48;;;2.15;;
74293;SDS011;64044;59.904;10.738;2023-03-03T11:55:43;4.00;;;1.80;;
74293;SDS011;64044;59.904;10.738;2023-03-03T12:06:30;4.25;;;1.15;;
74293;SDS011;64044;59.904;10.738;2023-03-03T12:16:41;2.55;;;1.00;;
74293;SDS011;64044;59.904;10.738;2023-03-03T12:55:14;4.18;;;1.38;;
74293;SDS011;64044;59.904;10.738;2023-03-03T12:58:08;1.88;;;0.70;;
74293;SDS011;64044;59.904;10.738;2023-03-03T13:06:14;8.35;;;0.77;;
74293;SDS011;64044;59.904;10.738;2023-03-03T13:15:09;1.38;;;0.60;;
74293;SDS011;64044;59.904;10.738;2023-03-03T13:20:00;3.53;;;0.40;;
74293;SDS011;64044;59.904;10.738;2023-03-03T13:22:50;1.35;;;0.40;;
74293;SDS011;64044;59.904;10.738;2023-03-03T13:28:09;1.42;;;0.80;;
74293;SDS011;64044;59.904;10.738;2023-03-03T13:30:37;3.65;;;0.57;;
74293;SDS011;64044;59.904;10.738;2023-03-03T13:33:16;2.47;;;0.60;;
74293;SDS011;64044;59.904;10.738;2023-03-03T13:36:08;0.77;;;0.38;;
74293;SDS011;64044;59.904;10.738;2023-03-03T13:38:37;1.10;;;0.40;;
74293;SDS011;64044;59.904;10.738;2023-03-03T13:43:57;3.45;;;0.63;;
74293;SDS011;64044;59.904;10.738;2023-03-03T13:52:03;4.68;;;0.82;;
74293;SDS011;64044;59.904;10.738;2023-03-03T14:00:29;2.05;;;0.93;;
74293;SDS011;64044;59.904;10.738;2023-03-03T14:03:14;1.67;;;0.52;;
74293;SDS011;64044;59.904;10.738;2023-03-03T14:05:51;0.65;;;0.30;;
74293;SDS011;64044;59.904;10.738;2023-03-03T14:11:11;4.63;;;0.90;;
74293;SDS011;64044;59.904;10.738;2023-03-03T14:19:24;2.10;;;0.82;;
74293;SDS011;64044;59.904;10.738;2023-03-03T14:27:35;9.07;;;4.30;;
74293;SDS011;64044;59.904;10.738;2023-03-03T14:38:23;3.65;;;1.67;;
74293;SDS011;64044;59.904;10.738;2023-03-03T14:43:43;2.63;;;1.50;;
74293;SDS011;64044;59.904;10.738;2023-03-03T14:46:31;1.45;;;0.80;;
74293;SDS011;64044;59.904;10.738;2023-03-03T14:49:03;1.02;;;0.73;;
74293;SDS011;64044;59.904;10.738;2023-03-03T14:51:46;0.80;;;0.40;;
74293;SDS011;64044;59.904;10.738;2023-03-03T14:59:39;0.85;;;0.45;;
74293;SDS011;64044;59.904;10.738;2023-03-03T15:04:44;1.52;;;0.80;;
74293;SDS011;64044;59.904;10.738;2023-03-03T15:07:32;1.13;;;0.30;;
74293;SDS011;64044;59.904;10.738;2023-03-03T15:10:02;0.70;;;0.38;;
74293;SDS011;64044;59.904;10.738;2023-03-03T15:17:33;3.03;;;0.95;;
74293;SDS011;64044;59.904;10.738;2023-03-03T15:25:16;1.60;;;0.40;;
74293;SDS011;64044;59.904;10.738;2023-03-03T15:28:11;2.40;;;0.40;;
74293;SDS011;64044;59.904;10.738;2023-03-03T15:31:05;0.32;;;0.32;;
74293;SDS011;64044;59.904;10.738;2023-03-03T15:33:57;0.93;;;0.50;;
74293;SDS011;64044;59.904;10.738;2023-03-03T15:38:59;0.65;;;0.40;;
74293;SDS011;64044;59.904;10.738;2023-03-03T15:55:19;0.40;;;0.30;;
74293;SDS011;64044;59.904;10.738;2023-03-03T16:03:18;0.98;;;0.40;;
74293;SDS011;64044;59.904;10.738;2023-03-03T16:05:52;2.15;;;0.20;;
74293;SDS011;64044;59.904;10.738;2023-03-03T16:08:44;1.55;;;0.30;;
74293;SDS011;64044;59.904;10.738;2023-03-03T16:16:53;0.52;;;0.40;;
74293;SDS011;64044;59.904;10.738;2023-03-03T16:28:41;0.75;;;0.30;;
74293;SDS011;64044;59.904;10.738;2023-03-03T16:31:06;0.60;;;0.60;;
74293;SDS011;64044;59.904;10.738;2023-03-03T16:34:09;0.30;;;0.30;;
74293;SDS011;64044;59.904;10.738;2023-03-03T16:55:24;1.52;;;0.55;;
74293;SDS011;64044;59.904;10.738;2023-03-03T16:58:18;2.67;;;0.70;;
74293;SDS011;64044;59.904;10.738;2023-03-03T17:14:49;4.78;;;0.50;;
74293;SDS011;64044;59.904;10.738;2023-03-03T17:17:26;1.45;;;0.90;;
74293;SDS011;64044;59.904;10.738;2023-03-03T17:20:49;1.88;;;0.55;;
74293;SDS011;64044;59.904;10.738;2023-03-03T17:47:11;6.18;;;1.92;;
74293;SDS011;64044;59.904;10.738;2023-03-03T18:00:47;4.97;;;2.33;;
74293;SDS011;64044;59.904;10.738;2023-03-03T18:11:21;2.53;;;1.27;;
74293;SDS011;64044;59.904;10.738;2023-03-03T18:22:47;0.63;;;0.40;;
74293;SDS011;64044;59.904;10.738;2023-03-03T18:25:21;2.42;;;0.40;;
74293;SDS011;64044;59.904;10.738;2023-03-03T18:38:54;2.03;;;1.02;;
74293;SDS011;64044;59.904;10.738;2023-03-03T18:41:24;3.35;;;0.90;;
74293;SDS011;64044;59.904;10.738;2023-03-03T18:43:52;3.55;;;1.40;;
74293;SDS011;64044;59.904;10.738;2023-03-03T19:16:02;4.30;;;1.80;;
74293;SDS011;64044;59.904;10.738;2023-03-03T19:27:37;3.80;;;1.80;;
74293;SDS011;64044;59.904;10.738;2023-03-03T19:30:19;2.60;;;1.40;;
74293;SDS011;64044;59.904;10.738;2023-03-03T19:36:13;2.53;;;1.05;;
74293;SDS011;64044;59.904;10.738;2023-03-03T19:45:02;5.80;;;1.50;;
74293;SDS011;64044;59.904;10.738;2023-03-03T19:50:16;6.93;;;1.25;;
74293;SDS011;64044;59.904;10.738;2023-03-03T20:36:27;4.82;;;1.20;;
74293;SDS011;64044;59.904;10.738;2023-03-03T20:39:19;5.57;;;1.67;;
74293;SDS011;64044;59.904;10.738;2023-03-03T20:50:10;8.23;;;2.53;;
74293;SDS011;64044;59.904;10.738;2023-03-03T21:04:27;3.97;;;2.47;;
74293;SDS011;64044;59.904;10.738;2023-03-03T21:06:55;4.40;;;2.33;;
74293;SDS011;64044;59.904;10.738;2023-03-03T21:09:39;4.53;;;2.13;;
74293;SDS011;64044;59.904;10.738;2023-03-03T21:12:47;12.40;;;3.15;;
74293;SDS011;64044;59.904;10.738;2023-03-03T21:15:20;7.68;;;2.35;;
74293;SDS011;64044;59.904;10.738;2023-03-03T21:17:52;6.50;;;2.28;;
74293;SDS011;64044;59.904;10.738;2023-03-03T21:20:23;6.13;;;2.05;;
74293;SDS011;64044;59.904;10.738;2023-03-03T21:22:57;6.47;;;2.22;;
74293;SDS011;64044;59.904;10.738;2023-03-03T21:28:13;5.15;;;2.28;;
74293;SDS011;64044;59.904;10.738;2023-03-03T21:36:06;2.13;;;1.35;;
74293;SDS011;64044;59.904;10.738;2023-03-03T21:38:33;3.80;;;1.80;;
74293;SDS011;64044;59.904;10.738;2023-03-03T21:41:00;2.75;;;1.60;;
74293;SDS011;64044;59.904;10.738;2023-03-03T21:43:40;3.63;;;1.63;;
74293;SDS011;64044;59.904;10.738;2023-03-03T21:46:08;3.80;;;1.30;;
74293;SDS011;64044;59.904;10.738;2023-03-03T21:48:34;4.72;;;1.20;;
74293;SDS011;64044;59.904;10.738;2023-03-03T21:51:03;4.50;;;1.40;;
74293;SDS011;64044;59.904;10.738;2023-03-03T21:53:29;8.48;;;1.00;;
74293;SDS011;64044;59.904;10.738;2023-03-03T21:55:55;2.55;;;0.90;;
74293;SDS011;64044;59.904;10.738;2023-03-03T21:58:20;2.72;;;1.38;;
74293;SDS011;64044;59.904;10.738;2023-03-03T22:00:46;3.55;;;1.33;;
74293;SDS011;64044;59.904;10.738;2023-03-03T22:03:12;3.33;;;1.00;;
74293;SDS011;64044;59.904;10.738;2023-03-03T22:05:39;2.90;;;1.20;;
74293;SDS011;64044;59.904;10.738;2023-03-03T22:08:05;3.60;;;1.35;;
74293;SDS011;64044;59.904;10.738;2023-03-03T22:10:56;2.05;;;1.08;;
74293;SDS011;64044;59.904;10.738;2023-03-03T22:13:23;2.95;;;1.08;;
74293;SDS011;64044;59.904;10.738;2023-03-03T22:15:49;6.05;;;1.25;;
74293;SDS011;64044;59.904;10.738;2023-03-03T22:18:15;2.00;;;0.80;;
74293;SDS011;64044;59.904;10.738;2023-03-03T22:20:43;2.00;;;0.90;;
74293;SDS011;64044;59.904;10.738;2023-03-03T22:23:13;2.05;;;0.80;;
74293;SDS011;64044;59.904;10.738;2023-03-03T22:25:39;0.80;;;0.68;;
74293;SDS011;64044;59.904;10.738;2023-03-03T22:28:05;1.23;;;0.75;;
74293;SDS011;64044;59.904;10.738;2023-03-03T22:30:31;2.17;;;0.88;;
74293;SDS011;64044;59.904;10.738;2023-03-03T22:32:57;0.70;;;0.70;;
74293;SDS011;64044;59.904;10.738;2023-03-03T22:35:22;1.63;;;0.85;;
74293;SDS011;64044;59.904;10.738;2023-03-03T22:37:48;3.63;;;1.00;;
74293;SDS011;64044;59.904;10.738;2023-03-03T22:40:14;2.95;;;0.80;;
74293;SDS011;64044;59.904;10.738;2023-03-03T22:42:40;2.08;;;0.95;;
74293;SDS011;64044;59.904;10.738;2023-03-03T22:45:05;3.67;;;1.27;;
74293;SDS011;64044;59.904;10.738;2023-03-03T22:47:34;1.55;;;0.70;;
74293;SDS011;64044;59.904;10.738;2023-03-03T22:50:00;4.43;;;0.93;;
74293;SDS011;64044;59.904;10.738;2023-03-03T22:52:25;1.40;;;0.65;;
74293;SDS011;64044;59.904;10.738;2023-03-03T22:54:51;4.28;;;1.10;;
74293;SDS011;64044;59.904;10.738;2023-03-03T22:57:17;3.28;;;1.00;;
74293;SDS011;64044;59.904;10.738;2023-03-03T22:59:42;2.05;;;0.93;;
74293;SDS011;64044;59.904;10.738;2023-03-03T23:02:08;4.20;;;1.42;;
74293;SDS011;64044;59.904;10.738;2023-03-03T23:04:34;3.42;;;1.15;;
74293;SDS011;64044;59.904;10.738;2023-03-03T23:06:59;5.32;;;1.00;;
74293;SDS011;64044;59.904;10.738;2023-03-03T23:09:25;2.72;;;0.80;;
74293;SDS011;64044;59.904;10.738;2023-03-03T23:11:51;5.50;;;1.55;;
74293;SDS011;64044;59.904;10.738;2023-03-03T23:14:17;3.42;;;1.00;;
74293;SDS011;64044;59.904;10.738;2023-03-03T23:16:42;1.92;;;0.90;;
74293;SDS011;64044;59.904;10.738;2023-03-03T23:19:09;3.42;;;1.05;;
74293;SDS011;64044;59.904;10.738;2023-03-03T23:21:35;2.55;;;0.88;;
74293;SDS011;64044;59.904;10.738;2023-03-03T23:24:01;1.30;;;0.60;;
74293;SDS011;64044;59.904;10.738;2023-03-03T23:26:26;2.42;;;0.85;;
74293;SDS011;64044;59.904;10.738;2023-03-03T23:28:52;4.57;;;1.05;;
74293;SDS011;64044;59.904;10.738;2023-03-03T23:31:18;1.88;;;0.60;;